createdAt,value
2023-05-16T00:00:18.020Z,1013.94
2023-05-16T00:01:17.998Z,1013.95
2023-05-16T00:02:18.031Z,1013.94
2023-05-16T00:03:18.048Z,1013.88
2023-05-16T00:04:18.060Z,1013.90
2023-05-16T00:05:17.999Z,1013.92
2023-05-16T00:06:17.993Z,1013.87
2023-05-16T00:07:17.993Z,1013.86
2023-05-16T00:08:18.001Z,1013.83
2023-05-16T00:09:17.990Z,1013.82
2023-05-16T00:10:17.997Z,1013.82
2023-05-16T00:11:17.996Z,1013.80
2023-05-16T00:12:17.990Z,1013.79
2023-05-16T00:13:18.000Z,1013.75
2023-05-16T00:14:17.993Z,1013.80
2023-05-16T00:15:17.996Z,1013.74
2023-05-16T00:16:18.034Z,1013.75
2023-05-16T00:17:17.992Z,1013.72
2023-05-16T00:18:17.993Z,1013.73
2023-05-16T00:19:18.102Z,1013.73
2023-05-16T00:20:18.036Z,1013.72
2023-05-16T00:21:17.992Z,1013.70
2023-05-16T00:22:17.987Z,1013.76
2023-05-16T00:23:17.993Z,1013.73
2023-05-16T00:24:17.993Z,1013.64
2023-05-16T00:25:17.986Z,1013.67
2023-05-16T00:26:17.999Z,1013.54
2023-05-16T00:27:17.995Z,1013.53
2023-05-16T00:28:17.988Z,1013.52
2023-05-16T00:29:17.994Z,1013.52
2023-05-16T00:30:17.995Z,1013.47
2023-05-16T00:31:18.018Z,1013.47
2023-05-16T00:32:18.250Z,1013.43
2023-05-16T00:33:17.993Z,1013.44
2023-05-16T00:34:18.022Z,1013.49
2023-05-16T00:35:17.982Z,1013.38
2023-05-16T00:36:17.987Z,1013.43
2023-05-16T00:37:17.990Z,1013.39
2023-05-16T00:38:17.989Z,1013.38
2023-05-16T00:39:17.986Z,1013.38
2023-05-16T00:40:17.986Z,1013.38
2023-05-16T00:41:17.988Z,1013.28
2023-05-16T00:42:17.984Z,1013.31
2023-05-16T00:43:17.995Z,1013.36
2023-05-16T00:44:17.985Z,1013.29
2023-05-16T00:45:17.990Z,1013.34
2023-05-16T00:46:18.028Z,1013.31
2023-05-16T00:47:17.986Z,1013.20
2023-05-16T00:48:18.175Z,1013.32
2023-05-16T00:49:17.986Z,1013.21
2023-05-16T00:50:17.991Z,1013.18
2023-05-16T00:51:17.988Z,1013.26
2023-05-16T00:52:17.987Z,1013.16
2023-05-16T00:53:17.984Z,1013.14
2023-05-16T00:54:17.982Z,1013.18
2023-05-16T00:55:17.987Z,1013.15
2023-05-16T00:56:17.985Z,1013.21
2023-05-16T00:57:17.984Z,1013.08
2023-05-16T00:58:17.986Z,1013.14
2023-05-16T00:59:17.980Z,1013.13
2023-05-16T01:00:17.979Z,1013.11
2023-05-16T01:01:18.046Z,1013.10
2023-05-16T01:02:18.066Z,1013.07
2023-05-16T01:03:18.033Z,1013.05
2023-05-16T01:04:18.017Z,1013.13
2023-05-16T01:05:17.977Z,1013.08
2023-05-16T01:06:17.975Z,1013.05
2023-05-16T01:07:17.980Z,1013.06
2023-05-16T01:08:17.974Z,1013.05
2023-05-16T01:09:17.976Z,1013.06
2023-05-16T01:10:17.970Z,1013.07
2023-05-16T01:11:17.976Z,1013.06
2023-05-16T01:12:17.976Z,1013.01
2023-05-16T01:13:17.975Z,1013.06
2023-05-16T01:14:17.966Z,1013.05
2023-05-16T01:15:18.001Z,1013.06
2023-05-16T01:16:18.040Z,1013.06
2023-05-16T01:17:17.972Z,1013.04
2023-05-16T01:18:18.018Z,1013.04
2023-05-16T01:19:18.038Z,1013.01
2023-05-16T01:20:17.993Z,1013.01
2023-05-16T01:21:17.961Z,1012.94
2023-05-16T01:22:17.968Z,1012.92
2023-05-16T01:23:17.969Z,1012.95
2023-05-16T01:24:17.966Z,1012.93
2023-05-16T01:25:17.988Z,1012.91
2023-05-16T01:26:17.961Z,1012.90
2023-05-16T01:27:17.971Z,1012.94
2023-05-16T01:28:17.999Z,1012.92
2023-05-16T01:29:17.965Z,1012.86
2023-05-16T01:30:17.958Z,1012.88
2023-05-16T01:31:18.014Z,1012.88
2023-05-16T01:32:18.263Z,1012.93
2023-05-16T01:33:17.959Z,1012.93
2023-05-16T01:34:17.957Z,1012.90
2023-05-16T01:35:17.962Z,1012.86
2023-05-16T01:36:17.987Z,1012.88
2023-05-16T01:37:17.978Z,1012.83
2023-05-16T01:38:18.007Z,1012.85
2023-05-16T01:39:17.957Z,1012.81
2023-05-16T01:40:17.956Z,1012.79
2023-05-16T01:41:17.954Z,1012.82
2023-05-16T01:42:17.960Z,1012.82
2023-05-16T01:43:17.967Z,1012.79
2023-05-16T01:44:17.974Z,1012.80
2023-05-16T01:45:17.960Z,1012.79
2023-05-16T01:46:18.042Z,1012.76
2023-05-16T01:47:18.015Z,1012.75
2023-05-16T01:48:18.014Z,1012.74
2023-05-16T01:49:17.958Z,1012.77
2023-05-16T01:50:17.961Z,1012.72
2023-05-16T01:51:17.950Z,1012.68
2023-05-16T01:52:17.977Z,1012.66
2023-05-16T01:53:17.948Z,1012.64
2023-05-16T01:54:17.947Z,1012.65
2023-05-16T01:55:17.950Z,1012.65
2023-05-16T01:56:17.965Z,1012.63
2023-05-16T01:57:17.954Z,1012.64
2023-05-16T01:58:17.953Z,1012.67
2023-05-16T01:59:17.947Z,1012.65
2023-05-16T02:00:17.966Z,1012.58
2023-05-16T02:01:18.094Z,1012.58
2023-05-16T02:02:17.945Z,1012.63
2023-05-16T02:03:18.015Z,1012.61
2023-05-16T02:04:17.969Z,1012.65
2023-05-16T02:05:17.941Z,1012.55
2023-05-16T02:06:17.944Z,1012.55
2023-05-16T02:07:17.943Z,1012.62
2023-05-16T02:08:17.971Z,1012.53
2023-05-16T02:09:17.943Z,1012.51
2023-05-16T02:10:17.941Z,1012.51
2023-05-16T02:11:17.951Z,1012.58
2023-05-16T02:12:17.942Z,1012.58
2023-05-16T02:13:17.936Z,1012.54
2023-05-16T02:14:17.953Z,1012.53
2023-05-16T02:15:17.944Z,1012.44
2023-05-16T02:16:17.954Z,1012.45
2023-05-16T02:17:17.942Z,1012.41
2023-05-16T02:18:17.938Z,1012.40
2023-05-16T02:19:17.976Z,1012.40
2023-05-16T02:20:17.948Z,1012.41
2023-05-16T02:21:17.941Z,1012.41
2023-05-16T02:22:17.937Z,1012.40
2023-05-16T02:23:17.958Z,1012.40
2023-05-16T02:24:17.965Z,1012.39
2023-05-16T02:25:17.938Z,1012.43
2023-05-16T02:26:17.934Z,1012.40
2023-05-16T02:27:17.939Z,1012.37
2023-05-16T02:28:17.935Z,1012.39
2023-05-16T02:29:17.943Z,1012.38
2023-05-16T02:30:17.946Z,1012.33
2023-05-16T02:31:18.029Z,1012.38
2023-05-16T02:32:17.934Z,1012.39
2023-05-16T02:33:18.086Z,1012.39
2023-05-16T02:34:17.933Z,1012.35
2023-05-16T02:35:17.932Z,1012.31
2023-05-16T02:36:17.945Z,1012.29
2023-05-16T02:37:17.947Z,1012.28
2023-05-16T02:38:17.938Z,1012.28
2023-05-16T02:39:17.932Z,1012.32
2023-05-16T02:40:17.954Z,1012.21
2023-05-16T02:41:17.941Z,1012.23
2023-05-16T02:42:17.933Z,1012.21
2023-05-16T02:43:17.931Z,1012.18
2023-05-16T02:44:17.930Z,1012.22
2023-05-16T02:45:17.930Z,1012.20
2023-05-16T02:46:17.945Z,1012.14
2023-05-16T02:47:17.934Z,1012.17
2023-05-16T02:48:17.932Z,1012.13
2023-05-16T02:49:17.928Z,1012.19
2023-05-16T02:50:17.924Z,1012.18
2023-05-16T02:51:17.925Z,1012.13
2023-05-16T02:52:17.932Z,1012.17
2023-05-16T02:53:17.929Z,1012.11
2023-05-16T02:54:17.925Z,1012.14
2023-05-16T02:55:22.302Z,1012.11
2023-05-16T02:56:17.948Z,1012.13
2023-05-16T02:57:17.922Z,1012.15
2023-05-16T02:58:17.919Z,1012.12
2023-05-16T02:59:17.918Z,1012.11
2023-05-16T03:00:18.899Z,1012.08
2023-05-16T03:01:17.985Z,1012.08
2023-05-16T03:02:18.084Z,1012.07
2023-05-16T03:03:18.082Z,1012.06
2023-05-16T03:04:17.925Z,1012.06
2023-05-16T03:05:17.918Z,1012.08
2023-05-16T03:06:17.928Z,1012.01
2023-05-16T03:07:17.921Z,1012.02
2023-05-16T03:08:17.920Z,1012.01
2023-05-16T03:09:17.960Z,1011.99
2023-05-16T03:10:17.915Z,1012.01
2023-05-16T03:11:17.918Z,1011.98
2023-05-16T03:12:17.945Z,1011.91
2023-05-16T03:13:17.919Z,1011.93
2023-05-16T03:14:17.912Z,1011.89
2023-05-16T03:15:17.920Z,1011.91
2023-05-16T03:16:18.002Z,1011.93
2023-05-16T03:17:17.915Z,1011.88
2023-05-16T03:18:17.970Z,1011.93
2023-05-16T03:19:17.965Z,1011.94
2023-05-16T03:20:17.917Z,1011.91
2023-05-16T03:21:17.909Z,1011.84
2023-05-16T03:22:17.909Z,1011.85
2023-05-16T03:23:17.964Z,1011.81
2023-05-16T03:24:18.003Z,1011.82
2023-05-16T03:25:17.908Z,1011.84
2023-05-16T03:26:17.911Z,1011.84
2023-05-16T03:27:17.929Z,1011.84
2023-05-16T03:28:17.967Z,1011.82
2023-05-16T03:29:17.908Z,1011.82
2023-05-16T03:30:17.910Z,1011.88
2023-05-16T03:31:17.961Z,1011.87
2023-05-16T03:32:18.013Z,1011.85
2023-05-16T03:33:17.910Z,1011.86
2023-05-16T03:34:17.909Z,1011.81
2023-05-16T03:35:17.907Z,1011.79
2023-05-16T03:36:17.910Z,1011.70
2023-05-16T03:37:17.905Z,1011.76
2023-05-16T03:38:17.912Z,1011.73
2023-05-16T03:39:17.909Z,1011.73
2023-05-16T03:40:17.910Z,1011.74
2023-05-16T03:41:17.903Z,1011.71
2023-05-16T03:42:17.904Z,1011.72
2023-05-16T03:43:17.911Z,1011.74
2023-05-16T03:44:17.930Z,1011.67
2023-05-16T03:45:17.905Z,1011.67
2023-05-16T03:46:17.965Z,1011.68
2023-05-16T03:47:17.901Z,1011.63
2023-05-16T03:48:17.904Z,1011.69
2023-05-16T03:49:17.908Z,1011.69
2023-05-16T03:50:17.901Z,1011.64
2023-05-16T03:51:17.896Z,1011.60
2023-05-16T03:52:17.908Z,1011.60
2023-05-16T03:53:17.899Z,1011.58
2023-05-16T03:54:17.904Z,1011.59
2023-05-16T03:55:17.902Z,1011.53
2023-05-16T03:56:17.897Z,1011.53
2023-05-16T03:57:17.896Z,1011.52
2023-05-16T03:58:17.895Z,1011.51
2023-05-16T03:59:17.900Z,1011.47
2023-05-16T04:00:17.920Z,1011.41
2023-05-16T04:01:17.898Z,1011.42
2023-05-16T04:02:18.864Z,1011.48
2023-05-16T04:03:17.935Z,1011.41
2023-05-16T04:04:17.894Z,1011.43
2023-05-16T04:05:17.918Z,1011.43
2023-05-16T04:06:18.056Z,1011.36
2023-05-16T04:07:17.893Z,1011.36
2023-05-16T04:08:17.891Z,1011.37
2023-05-16T04:09:17.891Z,1011.37
2023-05-16T04:10:17.888Z,1011.32
2023-05-16T04:11:17.889Z,1011.37
2023-05-16T04:12:17.903Z,1011.40
2023-05-16T04:13:18.096Z,1011.34
2023-05-16T04:14:17.889Z,1011.33
2023-05-16T04:15:17.895Z,1011.37
2023-05-16T04:16:17.939Z,1011.36
2023-05-16T04:17:17.886Z,1011.32
2023-05-16T04:18:18.056Z,1011.33
2023-05-16T04:19:17.969Z,1011.28
2023-05-16T04:20:17.887Z,1011.29
2023-05-16T04:21:17.887Z,1011.32
2023-05-16T04:22:17.890Z,1011.34
2023-05-16T04:23:17.887Z,1011.33
2023-05-16T04:24:17.888Z,1011.41
2023-05-16T04:25:17.884Z,1011.35
2023-05-16T04:26:17.897Z,1011.37
2023-05-16T04:27:17.894Z,1011.40
2023-05-16T04:28:17.884Z,1011.44
2023-05-16T04:29:17.883Z,1011.57
2023-05-16T04:30:17.878Z,1011.48
2023-05-16T04:31:17.919Z,1011.47
2023-05-16T04:32:17.988Z,1011.51
2023-05-16T04:33:17.884Z,1011.47
2023-05-16T04:34:17.887Z,1011.54
2023-05-16T04:35:17.882Z,1011.59
2023-05-16T04:36:17.881Z,1011.65
2023-05-16T04:37:17.884Z,1011.57
2023-05-16T04:38:17.938Z,1011.60
2023-05-16T04:39:17.885Z,1011.61
2023-05-16T04:40:17.877Z,1011.58
2023-05-16T04:41:17.880Z,1011.61
2023-05-16T04:42:17.876Z,1011.59
2023-05-16T04:43:17.874Z,1011.60
2023-05-16T04:44:17.881Z,1011.64
2023-05-16T04:45:17.879Z,1011.60
2023-05-16T04:46:17.902Z,1011.64
2023-05-16T04:47:17.894Z,1011.64
2023-05-16T04:48:17.902Z,1011.66
2023-05-16T04:49:17.889Z,1011.69
2023-05-16T04:50:17.881Z,1011.64
2023-05-16T04:51:17.881Z,1011.65
2023-05-16T04:52:17.896Z,1011.70
2023-05-16T04:53:17.874Z,1011.72
2023-05-16T04:54:17.881Z,1011.73
2023-05-16T04:55:17.873Z,1011.76
2023-05-16T04:56:17.869Z,1011.76
2023-05-16T04:57:17.879Z,1011.74
2023-05-16T04:58:17.873Z,1011.77
2023-05-16T04:59:17.873Z,1011.78
2023-05-16T05:00:17.876Z,1011.81
2023-05-16T05:01:17.928Z,1011.77
2023-05-16T05:02:17.870Z,1011.78
2023-05-16T05:03:17.930Z,1011.83
2023-05-16T05:04:17.913Z,1011.81
2023-05-16T05:05:17.924Z,1011.82
2023-05-16T05:06:17.872Z,1011.78
2023-05-16T05:07:17.868Z,1011.80
2023-05-16T05:08:17.868Z,1011.82
2023-05-16T05:09:17.870Z,1011.76
2023-05-16T05:10:17.876Z,1011.78
2023-05-16T05:11:17.873Z,1011.73
2023-05-16T05:12:17.861Z,1011.74
2023-05-16T05:13:17.866Z,1011.76
2023-05-16T05:14:17.865Z,1011.73
2023-05-16T05:15:17.871Z,1011.75
2023-05-16T05:16:17.864Z,1011.73
2023-05-16T05:17:17.923Z,1011.75
2023-05-16T05:18:17.922Z,1011.67
2023-05-16T05:19:17.890Z,1011.71
2023-05-16T05:20:17.900Z,1011.76
2023-05-16T05:21:17.857Z,1011.74
2023-05-16T05:22:17.860Z,1011.72
2023-05-16T05:23:18.014Z,1011.70
2023-05-16T05:24:17.862Z,1011.67
2023-05-16T05:25:17.866Z,1011.70
2023-05-16T05:26:17.853Z,1011.73
2023-05-16T05:27:17.854Z,1011.65
2023-05-16T05:28:18.167Z,1011.64
2023-05-16T05:29:17.859Z,1011.60
2023-05-16T05:30:17.869Z,1011.64
2023-05-16T05:31:17.874Z,1011.61
2023-05-16T05:32:17.858Z,1011.64
2023-05-16T05:33:17.879Z,1011.58
2023-05-16T05:34:17.851Z,1011.65
2023-05-16T05:35:17.848Z,1011.66
2023-05-16T05:36:17.872Z,1011.63
2023-05-16T05:37:17.855Z,1011.59
2023-05-16T05:38:17.850Z,1011.57
2023-05-16T05:39:17.846Z,1011.64
2023-05-16T05:40:17.849Z,1011.64
2023-05-16T05:41:17.849Z,1011.64
2023-05-16T05:42:17.857Z,1011.65
2023-05-16T05:43:17.843Z,1011.69
2023-05-16T05:44:17.848Z,1011.67
2023-05-16T05:45:17.849Z,1011.62
2023-05-16T05:46:17.897Z,1011.65
2023-05-16T05:47:17.842Z,1011.62
2023-05-16T05:48:17.843Z,1011.66
2023-05-16T05:49:17.845Z,1011.65
2023-05-16T05:50:17.845Z,1011.63
2023-05-16T05:51:17.852Z,1011.67
2023-05-16T05:52:17.877Z,1011.72
2023-05-16T05:53:18.000Z,1011.69
2023-05-16T05:54:17.843Z,1011.69
2023-05-16T05:55:17.833Z,1011.68
2023-05-16T05:56:17.836Z,1011.66
2023-05-16T05:57:17.842Z,1011.67
2023-05-16T05:58:17.845Z,1011.75
2023-05-16T05:59:17.843Z,1011.79
2023-05-16T06:00:17.845Z,1011.77
2023-05-16T06:01:17.850Z,1011.80
2023-05-16T06:02:17.866Z,1011.82
2023-05-16T06:03:17.868Z,1011.87
2023-05-16T06:04:17.838Z,1011.80
2023-05-16T06:05:17.859Z,1011.82
2023-05-16T06:06:17.834Z,1011.84
2023-05-16T06:07:17.835Z,1011.87
2023-05-16T06:08:17.854Z,1011.93
2023-05-16T06:09:17.836Z,1012.06
2023-05-16T06:10:17.837Z,1012.07
2023-05-16T06:11:17.833Z,1012.08
2023-05-16T06:12:17.829Z,1012.01
2023-05-16T06:13:17.834Z,1012.03
2023-05-16T06:14:17.827Z,1012.04
2023-05-16T06:15:17.833Z,1012.02
2023-05-16T06:16:17.866Z,1012.00
2023-05-16T06:17:18.123Z,1012.08
2023-05-16T06:18:17.879Z,1012.20
2023-05-16T06:19:17.889Z,1012.35
2023-05-16T06:20:17.843Z,1012.33
2023-05-16T06:21:17.826Z,1012.21
2023-05-16T06:22:17.826Z,1012.15
2023-05-16T06:23:19.307Z,1012.05
2023-05-16T06:24:17.854Z,1012.05
2023-05-16T06:25:17.829Z,1011.92
2023-05-16T06:26:17.831Z,1011.83
2023-05-16T06:27:17.829Z,1011.85
2023-05-16T06:28:17.830Z,1011.85
2023-05-16T06:29:17.825Z,1011.82
2023-05-16T06:30:17.837Z,1011.79
2023-05-16T06:31:17.876Z,1011.81
2023-05-16T06:32:17.826Z,1011.87
2023-05-16T06:33:17.827Z,1011.86
2023-05-16T06:34:17.831Z,1011.83
2023-05-16T06:35:17.826Z,1011.75
2023-05-16T06:36:17.826Z,1011.74
2023-05-16T06:37:17.829Z,1011.80
2023-05-16T06:38:17.822Z,1011.83
2023-05-16T06:39:17.827Z,1011.75
2023-05-16T06:40:17.854Z,1011.75
2023-05-16T06:41:17.832Z,1011.72
2023-05-16T06:42:17.881Z,1011.66
2023-05-16T06:43:17.826Z,1011.66
2023-05-16T06:44:17.822Z,1011.55
2023-05-16T06:45:17.822Z,1011.57
2023-05-16T06:46:17.852Z,1011.57
2023-05-16T06:47:17.835Z,1011.59
2023-05-16T06:48:17.881Z,1011.65
2023-05-16T06:49:17.817Z,1011.71
2023-05-16T06:50:17.829Z,1011.81
2023-05-16T06:51:17.844Z,1011.85
2023-05-16T06:52:17.822Z,1011.86
2023-05-16T06:53:17.827Z,1011.90
2023-05-16T06:54:17.813Z,1011.88
2023-05-16T06:55:17.830Z,1011.92
2023-05-16T06:56:17.876Z,1011.89
2023-05-16T06:57:17.813Z,1011.97
2023-05-16T06:58:17.821Z,1011.98
2023-05-16T06:59:17.816Z,1011.93
2023-05-16T07:00:17.816Z,1011.91
2023-05-16T07:01:17.851Z,1011.81
2023-05-16T07:02:17.848Z,1011.80
2023-05-16T07:03:17.917Z,1011.85
2023-05-16T07:04:17.823Z,1011.92
2023-05-16T07:05:17.810Z,1011.97
2023-05-16T07:06:17.820Z,1011.94
2023-05-16T07:07:17.810Z,1011.93
2023-05-16T07:08:17.808Z,1011.95
2023-05-16T07:09:17.807Z,1011.87
2023-05-16T07:10:17.811Z,1011.86
2023-05-16T07:11:17.829Z,1011.90
2023-05-16T07:12:17.855Z,1011.87
2023-05-16T07:13:17.958Z,1011.90
2023-05-16T07:14:17.809Z,1011.90
2023-05-16T07:15:17.812Z,1011.85
2023-05-16T07:16:17.845Z,1011.80
2023-05-16T07:17:17.803Z,1011.80
2023-05-16T07:18:17.804Z,1011.79
2023-05-16T07:19:17.934Z,1011.74
2023-05-16T07:20:17.812Z,1011.84
2023-05-16T07:21:17.823Z,1011.82
2023-05-16T07:22:17.804Z,1011.84
2023-05-16T07:23:17.810Z,1011.89
2023-05-16T07:24:17.819Z,1011.90
2023-05-16T07:25:17.808Z,1011.88
2023-05-16T07:26:17.800Z,1011.83
2023-05-16T07:27:17.801Z,1011.84
2023-05-16T07:28:17.863Z,1011.79
2023-05-16T07:29:17.803Z,1011.75
2023-05-16T07:30:17.799Z,1011.73
2023-05-16T07:31:17.873Z,1011.73
2023-05-16T07:32:17.846Z,1011.67
2023-05-16T07:33:17.810Z,1011.64
2023-05-16T07:34:17.806Z,1011.61
2023-05-16T07:35:17.799Z,1011.56
2023-05-16T07:36:18.051Z,1011.52
2023-05-16T07:37:17.807Z,1011.45
2023-05-16T07:38:17.801Z,1011.51
2023-05-16T07:39:17.791Z,1011.44
2023-05-16T07:40:17.790Z,1011.46
2023-05-16T07:41:17.801Z,1011.49
2023-05-16T07:42:17.795Z,1011.48
2023-05-16T07:43:17.790Z,1011.40
2023-05-16T07:44:17.815Z,1011.39
2023-05-16T07:45:17.799Z,1011.42
2023-05-16T07:46:17.904Z,1011.38
2023-05-16T07:47:17.786Z,1011.43
2023-05-16T07:48:17.782Z,1011.43
2023-05-16T07:49:17.791Z,1011.37
2023-05-16T07:50:17.783Z,1011.35
2023-05-16T07:51:17.785Z,1011.42
2023-05-16T07:52:17.782Z,1011.40
2023-05-16T07:53:17.785Z,1011.43
2023-05-16T07:54:17.786Z,1011.42
2023-05-16T07:55:17.787Z,1011.46
2023-05-16T07:56:17.782Z,1011.44
2023-05-16T07:57:17.816Z,1011.38
2023-05-16T07:58:17.789Z,1011.40
2023-05-16T07:59:17.835Z,1011.41
2023-05-16T08:00:17.823Z,1011.51
2023-05-16T08:01:17.774Z,1011.55
2023-05-16T08:02:17.860Z,1011.59
2023-05-16T08:03:17.835Z,1011.58
2023-05-16T08:04:17.784Z,1011.62
2023-05-16T08:05:17.856Z,1011.65
2023-05-16T08:06:17.775Z,1011.66
2023-05-16T08:07:17.793Z,1011.70
2023-05-16T08:08:17.775Z,1011.64
2023-05-16T08:09:17.787Z,1011.64
2023-05-16T08:10:17.776Z,1011.66
2023-05-16T08:11:17.774Z,1011.68
2023-05-16T08:12:17.774Z,1011.65
2023-05-16T08:13:17.780Z,1011.68
2023-05-16T08:14:17.773Z,1011.64
2023-05-16T08:15:17.782Z,1011.65
2023-05-16T08:16:17.881Z,1011.73
2023-05-16T08:17:17.780Z,1011.75
2023-05-16T08:18:20.030Z,1011.74
2023-05-16T08:19:17.894Z,1011.76
2023-05-16T08:20:17.773Z,1011.72
2023-05-16T08:21:17.771Z,1011.76
2023-05-16T08:22:17.770Z,1011.72
2023-05-16T08:23:17.770Z,1011.74
2023-05-16T08:24:18.397Z,1011.73
2023-05-16T08:25:17.784Z,1011.80
2023-05-16T08:26:17.765Z,1011.81
2023-05-16T08:27:17.764Z,1011.81
2023-05-16T08:28:17.767Z,1011.79
2023-05-16T08:29:17.763Z,1011.81
2023-05-16T08:30:17.780Z,1011.81
2023-05-16T08:31:17.852Z,1011.79
2023-05-16T08:32:17.861Z,1011.81
2023-05-16T08:33:17.932Z,1011.76
2023-05-16T08:34:17.761Z,1011.80
2023-05-16T08:35:17.794Z,1011.79
2023-05-16T08:36:17.762Z,1011.82
2023-05-16T08:37:17.777Z,1011.82
2023-05-16T08:38:17.767Z,1011.76
2023-05-16T08:39:17.760Z,1011.76
2023-05-16T08:40:17.762Z,1011.80
2023-05-16T08:41:17.760Z,1011.78
2023-05-16T08:42:17.773Z,1011.79
2023-05-16T08:43:17.758Z,1011.79
2023-05-16T08:44:17.763Z,1011.78
2023-05-16T08:45:17.761Z,1011.75
2023-05-16T08:46:17.766Z,1011.77
2023-05-16T08:47:17.891Z,1011.74
2023-05-16T08:48:18.059Z,1011.75
2023-05-16T08:49:17.777Z,1011.72
2023-05-16T08:50:17.762Z,1011.73
2023-05-16T08:51:17.757Z,1011.65
2023-05-16T08:52:17.762Z,1011.65
2023-05-16T08:53:17.759Z,1011.67
2023-05-16T08:54:17.763Z,1011.63
2023-05-16T08:55:17.765Z,1011.66
2023-05-16T08:56:17.766Z,1011.58
2023-05-16T08:57:17.764Z,1011.66
2023-05-16T08:58:17.763Z,1011.64
2023-05-16T08:59:17.757Z,1011.66
2023-05-16T09:00:17.757Z,1011.49
2023-05-16T09:01:17.852Z,1011.56
2023-05-16T09:02:17.773Z,1011.54
2023-05-16T09:03:17.761Z,1011.50
2023-05-16T09:04:17.983Z,1011.44
2023-05-16T09:05:17.758Z,1011.54
2023-05-16T09:06:17.765Z,1011.50
2023-05-16T09:07:17.753Z,1011.47
2023-05-16T09:08:17.756Z,1011.45
2023-05-16T09:09:17.753Z,1011.44
2023-05-16T09:10:17.750Z,1011.40
2023-05-16T09:11:17.757Z,1011.41
2023-05-16T09:12:17.785Z,1011.36
2023-05-16T09:13:17.754Z,1011.38
2023-05-16T09:14:17.755Z,1011.32
2023-05-16T09:15:17.749Z,1011.34
2023-05-16T09:16:17.854Z,1011.32
2023-05-16T09:18:17.797Z,1011.30
2023-05-16T09:19:17.783Z,1011.32
2023-05-16T09:20:17.820Z,1011.25
2023-05-16T09:21:17.745Z,1011.19
2023-05-16T09:22:17.754Z,1011.24
2023-05-16T09:23:17.802Z,1011.25
2023-05-16T09:24:17.751Z,1011.22
2023-05-16T09:25:28.336Z,1011.20
2023-05-16T09:26:17.768Z,1011.13
2023-05-16T09:27:17.752Z,1011.12
2023-05-16T09:28:17.743Z,1011.10
2023-05-16T09:29:17.744Z,1011.12
2023-05-16T09:30:17.742Z,1011.10
2023-05-16T09:31:17.783Z,1011.09
2023-05-16T09:32:17.759Z,1011.07
2023-05-16T09:33:17.743Z,1010.95
2023-05-16T09:34:17.766Z,1010.92
2023-05-16T09:35:27.161Z,1010.83
2023-05-16T09:36:17.779Z,1010.78
2023-05-16T09:37:17.744Z,1010.76
2023-05-16T09:38:17.863Z,1010.65
2023-05-16T09:39:17.740Z,1010.66
2023-05-16T09:40:17.739Z,1010.61
2023-05-16T09:41:17.742Z,1010.70
2023-05-16T09:42:17.743Z,1010.64
2023-05-16T09:43:18.426Z,1010.65
2023-05-16T09:44:17.738Z,1010.64
2023-05-16T09:45:17.737Z,1010.66
2023-05-16T09:46:17.772Z,1010.71
2023-05-16T09:47:17.756Z,1010.69
2023-05-16T09:48:17.989Z,1010.69
2023-05-16T09:49:17.739Z,1010.66
2023-05-16T09:50:17.735Z,1010.62
2023-05-16T09:51:17.739Z,1010.54
2023-05-16T09:52:17.791Z,1010.58
2023-05-16T09:53:17.739Z,1010.58
2023-05-16T09:54:17.735Z,1010.57
2023-05-16T09:55:17.730Z,1010.60
2023-05-16T09:56:17.732Z,1010.68
2023-05-16T09:57:17.733Z,1010.64
2023-05-16T09:58:17.739Z,1010.62
2023-05-16T09:59:17.727Z,1010.62
2023-05-16T10:00:17.747Z,1010.70
2023-05-16T10:01:17.789Z,1010.67
2023-05-16T10:02:17.804Z,1010.65
2023-05-16T10:03:17.866Z,1010.66
2023-05-16T10:04:17.747Z,1010.60
2023-05-16T10:05:17.753Z,1010.49
2023-05-16T10:06:17.729Z,1010.42
2023-05-16T10:07:17.722Z,1010.36
2023-05-16T10:08:17.776Z,1010.45
2023-05-16T10:09:17.737Z,1010.41
2023-05-16T10:10:17.738Z,1010.40
2023-05-16T10:11:17.730Z,1010.33
2023-05-16T10:12:17.732Z,1010.30
2023-05-16T10:13:17.721Z,1010.31
2023-05-16T10:14:17.730Z,1010.32
2023-05-16T10:15:17.722Z,1010.30
2023-05-16T10:16:17.763Z,1010.32
2023-05-16T10:17:17.719Z,1010.27
2023-05-16T10:18:17.773Z,1010.29
2023-05-16T10:19:17.764Z,1010.22
2023-05-16T10:20:17.780Z,1010.22
2023-05-16T10:21:17.718Z,1010.29
2023-05-16T10:22:17.717Z,1010.24
2023-05-16T10:23:17.725Z,1010.18
2023-05-16T10:24:17.747Z,1010.17
2023-05-16T10:25:17.714Z,1010.15
2023-05-16T10:26:17.792Z,1010.13
2023-05-16T10:27:19.322Z,1010.09
2023-05-16T10:28:17.766Z,1010.08
2023-05-16T10:29:17.725Z,1010.03
2023-05-16T10:30:17.720Z,1009.98
2023-05-16T10:31:17.733Z,1010.04
2023-05-16T10:32:17.796Z,1009.96
2023-05-16T10:33:17.785Z,1010.02
2023-05-16T10:34:17.711Z,1010.04
2023-05-16T10:35:17.719Z,1010.05
2023-05-16T10:36:17.711Z,1010.00
2023-05-16T10:37:17.715Z,1009.99
2023-05-16T10:38:18.040Z,1010.01
2023-05-16T10:39:17.717Z,1009.93
2023-05-16T10:40:17.825Z,1010.03
2023-05-16T10:41:17.701Z,1010.00
2023-05-16T10:42:17.709Z,1009.98
2023-05-16T10:43:17.729Z,1009.93
2023-05-16T10:44:17.720Z,1009.90
2023-05-16T10:45:17.710Z,1009.79
2023-05-16T10:46:17.775Z,1009.77
2023-05-16T10:47:17.704Z,1009.73
2023-05-16T10:48:17.779Z,1009.68
2023-05-16T10:49:17.706Z,1009.67
2023-05-16T10:50:17.717Z,1009.70
2023-05-16T10:51:17.704Z,1009.71
2023-05-16T10:52:17.704Z,1009.69
2023-05-16T10:53:17.716Z,1009.62
2023-05-16T10:54:17.702Z,1009.68
2023-05-16T10:55:17.703Z,1009.63
2023-05-16T10:56:17.969Z,1009.62
2023-05-16T10:57:17.701Z,1009.63
2023-05-16T10:58:17.701Z,1009.64
2023-05-16T10:59:17.700Z,1009.71
2023-05-16T11:00:17.753Z,1009.66
2023-05-16T11:01:17.756Z,1009.70
2023-05-16T11:02:17.730Z,1009.73
2023-05-16T11:03:17.860Z,1009.63
2023-05-16T11:04:17.700Z,1009.60
2023-05-16T11:05:17.705Z,1009.60
2023-05-16T11:06:20.108Z,1009.63
2023-05-16T11:07:17.698Z,1009.54
2023-05-16T11:08:17.702Z,1009.62
2023-05-16T11:09:17.703Z,1009.60
2023-05-16T11:10:17.722Z,1009.55
2023-05-16T11:11:17.705Z,1009.56
2023-05-16T11:12:17.722Z,1009.58
2023-05-16T11:13:17.706Z,1009.51
2023-05-16T11:14:17.699Z,1009.46
2023-05-16T11:15:17.696Z,1009.55
2023-05-16T11:16:17.716Z,1009.51
2023-05-16T11:17:17.808Z,1009.46
2023-05-16T11:18:17.733Z,1009.53
2023-05-16T11:19:17.814Z,1009.52
2023-05-16T11:20:17.702Z,1009.50
2023-05-16T11:21:17.696Z,1009.47
2023-05-16T11:22:17.693Z,1009.44
2023-05-16T11:23:17.723Z,1009.41
2023-05-16T11:24:18.608Z,1009.37
2023-05-16T11:25:17.685Z,1009.40
2023-05-16T11:26:17.700Z,1009.44
2023-05-16T11:27:17.682Z,1009.42
2023-05-16T11:28:17.740Z,1009.38
2023-05-16T11:29:17.688Z,1009.46
2023-05-16T11:30:17.699Z,1009.45
2023-05-16T11:31:17.756Z,1009.38
2023-05-16T11:32:17.705Z,1009.38
2023-05-16T11:33:17.766Z,1009.26
2023-05-16T11:34:17.692Z,1009.32
2023-05-16T11:35:17.684Z,1009.32
2023-05-16T11:36:17.692Z,1009.36
2023-05-16T11:37:17.695Z,1009.36
2023-05-16T11:38:17.692Z,1009.44
2023-05-16T11:39:17.702Z,1009.31
2023-05-16T11:40:17.679Z,1009.27
2023-05-16T11:41:17.724Z,1009.27
2023-05-16T11:42:17.697Z,1009.32
2023-05-16T11:43:17.683Z,1009.31
2023-05-16T11:44:17.722Z,1009.23
2023-05-16T11:45:17.689Z,1009.26
2023-05-16T11:46:17.728Z,1009.28
2023-05-16T11:47:17.695Z,1009.30
2023-05-16T11:48:28.524Z,1009.20
2023-05-16T11:49:17.688Z,1009.24
2023-05-16T11:50:17.692Z,1009.17
2023-05-16T11:51:17.677Z,1009.19
2023-05-16T11:52:17.683Z,1009.28
2023-05-16T11:53:17.686Z,1009.23
2023-05-16T11:54:17.676Z,1009.22
2023-05-16T11:55:28.146Z,1009.24
2023-05-16T11:56:17.680Z,1009.20
2023-05-16T11:57:17.692Z,1009.22
2023-05-16T11:58:17.744Z,1009.11
2023-05-16T11:59:17.683Z,1009.23
2023-05-16T12:00:17.865Z,1009.12
2023-05-16T12:01:17.687Z,1009.12
2023-05-16T12:02:17.687Z,1009.14
2023-05-16T12:03:17.745Z,1009.19
2023-05-16T12:04:18.088Z,1009.34
2023-05-16T12:05:17.776Z,1009.09
2023-05-16T12:06:17.688Z,1009.14